createdAt,value
2017-05-09T00:00:22.520Z,0
2017-05-09T00:01:22.239Z,0
2017-05-09T00:02:22.888Z,0
2017-05-09T00:03:22.613Z,0
2017-05-09T00:04:22.653Z,0
2017-05-09T00:05:22.683Z,0
2017-05-09T00:06:22.409Z,0
2017-05-09T00:07:22.746Z,0
2017-05-09T00:08:22.790Z,0
2017-05-09T00:09:23.136Z,0
2017-05-09T00:10:22.849Z,0
2017-05-09T00:11:23.209Z,0
2017-05-09T00:12:22.924Z,0
2017-05-09T00:13:22.646Z,0
2017-05-09T00:14:22.991Z,0
2017-05-09T00:15:23.020Z,0
2017-05-09T00:16:23.675Z,0
2017-05-09T00:17:23.108Z,0
2017-05-09T00:18:23.432Z,0
2017-05-09T00:19:23.464Z,0
2017-05-09T00:20:22.887Z,0
2017-05-09T00:21:22.916Z,0
2017-05-09T00:22:23.259Z,0
2017-05-09T00:23:23.609Z,0
2017-05-09T00:24:23.634Z,0
2017-05-09T00:25:23.051Z,0
2017-05-09T00:26:24.007Z,0
2017-05-09T00:27:23.745Z,0
2017-05-09T00:28:23.152Z,0
2017-05-09T00:29:23.822Z,0
2017-05-09T00:30:23.223Z,0
2017-05-09T00:31:23.908Z,0
2017-05-09T00:32:23.600Z,0
2017-05-09T00:33:23.625Z,0
2017-05-09T00:34:23.663Z,0
2017-05-09T00:35:23.391Z,0
2017-05-09T00:36:23.754Z,0
2017-05-09T00:37:23.771Z,0
2017-05-09T00:38:23.790Z,0
2017-05-09T00:39:23.876Z,0
2017-05-09T00:40:24.177Z,0
2017-05-09T00:41:24.237Z,0
2017-05-09T00:42:23.942Z,0
2017-05-09T00:43:24.280Z,0
2017-05-09T00:44:24.647Z,0
2017-05-09T00:45:23.729Z,0
2017-05-09T00:46:23.756Z,0
2017-05-09T00:47:23.797Z,0
2017-05-09T00:48:24.144Z,0
2017-05-09T00:49:24.774Z,0
2017-05-09T00:50:23.897Z,0
2017-05-09T00:51:23.932Z,0
2017-05-09T00:52:24.578Z,0
2017-05-09T00:53:24.000Z,0
2017-05-09T00:54:24.028Z,0
2017-05-09T00:55:24.062Z,0
2017-05-09T00:56:24.093Z,0
2017-05-09T00:57:24.750Z,0
2017-05-09T00:58:24.474Z,0
2017-05-09T00:59:25.112Z,0
2017-05-09T01:00:24.234Z,0
2017-05-09T01:01:24.893Z,0
2017-05-09T01:02:24.602Z,0
2017-05-09T01:03:24.640Z,0
2017-05-09T01:04:24.988Z,0
2017-05-09T01:05:24.716Z,0
2017-05-09T01:06:24.429Z,0
2017-05-09T01:07:24.773Z,0
2017-05-09T01:08:25.113Z,0
2017-05-09T01:09:24.838Z,0
2017-05-09T01:10:24.879Z,0
2017-05-09T01:11:24.598Z,0
2017-05-09T01:12:24.990Z,0
2017-05-09T01:13:24.974Z,0
2017-05-09T01:14:25.932Z,0
2017-05-09T01:15:24.737Z,0
2017-05-09T01:16:25.072Z,0
2017-05-09T01:17:24.797Z,0
2017-05-09T01:18:25.458Z,0
2017-05-09T01:19:25.184Z,0
2017-05-09T01:20:24.899Z,0
2017-05-09T01:21:24.931Z,0
2017-05-09T01:22:25.273Z,0
2017-05-09T01:23:25.000Z,0
2017-05-09T01:24:25.349Z,0
2017-05-09T01:25:25.069Z,0
2017-05-09T01:26:25.420Z,0
2017-05-09T01:27:25.135Z,0
2017-05-09T01:28:25.477Z,0
2017-05-09T01:29:25.208Z,0
2017-05-09T01:30:25.237Z,0
2017-05-09T01:31:25.584Z,0
2017-05-09T01:32:25.303Z,0
2017-05-09T01:33:25.950Z,0
2017-05-09T01:34:25.990Z,0
2017-05-09T01:35:25.712Z,0
2017-05-09T01:36:25.439Z,0
2017-05-09T01:37:25.779Z,0
2017-05-09T01:38:25.502Z,0
2017-05-09T01:39:25.537Z,0
2017-05-09T01:40:25.882Z,0
2017-05-09T01:41:25.600Z,0
2017-05-09T01:42:26.260Z,0
2017-05-09T01:43:26.293Z,0
2017-05-09T01:44:26.947Z,0
2017-05-09T01:45:26.351Z,0
2017-05-09T01:46:25.774Z,0
2017-05-09T01:47:26.432Z,0
2017-05-09T01:48:26.150Z,0
2017-05-09T01:49:26.486Z,0
2017-05-09T01:50:25.899Z,0
2017-05-09T01:51:26.871Z,0
2017-05-09T01:52:25.973Z,0
2017-05-09T01:53:26.626Z,0
2017-05-09T01:54:26.352Z,0
2017-05-09T01:55:26.075Z,0
2017-05-09T01:56:26.415Z,0
2017-05-09T01:57:26.453Z,0
2017-05-09T01:58:26.804Z,0
2017-05-09T01:59:26.829Z,0
2017-05-09T02:00:26.242Z,0
2017-05-09T02:01:26.270Z,0
2017-05-09T02:02:26.610Z,0
2017-05-09T02:03:26.651Z,0
2017-05-09T02:04:26.991Z,0
2017-05-09T02:05:26.707Z,0
2017-05-09T02:06:26.742Z,0
2017-05-09T02:07:26.772Z,0
2017-05-09T02:08:26.819Z,0
2017-05-09T02:09:26.839Z,0
2017-05-09T02:10:26.572Z,0
2017-05-09T02:11:26.598Z,0
2017-05-09T02:12:26.947Z,0
2017-05-09T02:13:27.282Z,0
2017-05-09T02:14:27.010Z,0
2017-05-09T02:15:27.353Z,0
2017-05-09T02:16:27.426Z,0
2017-05-09T02:17:27.109Z,0
2017-05-09T02:18:27.152Z,0
2017-05-09T02:19:26.871Z,0
2017-05-09T02:20:26.902Z,0
2017-05-09T02:21:27.589Z,0
2017-05-09T02:22:27.582Z,0
2017-05-09T02:23:27.613Z,0
2017-05-09T02:24:27.339Z,0
2017-05-09T02:25:27.375Z,0
2017-05-09T02:26:27.098Z,0
2017-05-09T02:27:27.133Z,0
2017-05-09T02:28:27.468Z,0
2017-05-09T02:29:27.817Z,0
2017-05-09T02:30:27.553Z,0
2017-05-09T02:31:27.265Z,0
2017-05-09T02:32:28.220Z,0
2017-05-09T02:33:27.985Z,0
2017-05-09T02:34:27.673Z,0
2017-05-09T02:35:27.402Z,0
2017-05-09T02:36:27.743Z,0
2017-05-09T02:37:27.770Z,0
2017-05-09T02:38:27.806Z,0
2017-05-09T02:39:27.537Z,0
2017-05-09T02:40:27.562Z,0
2017-05-09T02:41:27.913Z,0
2017-05-09T02:42:27.937Z,0
2017-05-09T02:43:28.281Z,0
2017-05-09T02:44:28.316Z,0
2017-05-09T02:45:27.740Z,0
2017-05-09T02:46:27.760Z,0
2017-05-09T02:47:28.097Z,0
2017-05-09T02:48:28.442Z,0
2017-05-09T02:49:28.167Z,0
2017-05-09T02:50:28.205Z,0
2017-05-09T02:51:28.230Z,0
2017-05-09T02:52:28.262Z,0
2017-05-09T02:53:28.310Z,0
2017-05-09T02:54:28.637Z,0
2017-05-09T02:55:28.053Z,0
2017-05-09T02:56:28.394Z,0
2017-05-09T02:57:28.736Z,0
2017-05-09T02:58:28.682Z,0
2017-05-09T02:59:28.798Z,0
2017-05-09T03:00:28.213Z,0
2017-05-09T03:01:28.591Z,0
2017-05-09T03:02:28.507Z,0
2017-05-09T03:03:28.627Z,0
2017-05-09T03:04:28.967Z,0
2017-05-09T03:05:28.384Z,0
2017-05-09T03:06:28.719Z,0
2017-05-09T03:07:28.757Z,0
2017-05-09T03:08:28.789Z,0
2017-05-09T03:09:28.828Z,0
2017-05-09T03:10:28.858Z,0
2017-05-09T03:11:28.880Z,0
2017-05-09T03:12:28.605Z,0
2017-05-09T03:13:28.642Z,0
2017-05-09T03:14:28.982Z,0
2017-05-09T03:15:29.015Z,0
2017-05-09T03:16:28.733Z,0
2017-05-09T03:17:28.774Z,0
2017-05-09T03:18:29.743Z,0
2017-05-09T03:19:29.757Z,0
2017-05-09T03:20:29.482Z,5
2017-05-09T03:21:29.209Z,5
2017-05-09T03:22:29.546Z,5
2017-05-09T03:23:29.578Z,5
2017-05-09T03:24:29.312Z,5
2017-05-09T03:25:29.640Z,5
2017-05-09T03:26:29.066Z,5
2017-05-09T03:27:29.396Z,5
2017-05-09T03:28:29.749Z,10
2017-05-09T03:29:29.469Z,10
2017-05-09T03:30:29.493Z,10
2017-05-09T03:31:29.830Z,10
2017-05-09T03:32:29.247Z,10
2017-05-09T03:33:29.609Z,10
2017-05-09T03:34:29.626Z,10
2017-05-09T03:35:29.353Z,15
2017-05-09T03:36:29.693Z,15
2017-05-09T03:37:29.726Z,15
2017-05-09T03:38:30.068Z,15
2017-05-09T03:39:29.787Z,20
2017-05-09T03:40:29.825Z,30
2017-05-09T03:41:29.855Z,40
2017-05-09T03:42:29.892Z,45
2017-05-09T03:43:30.533Z,45
2017-05-09T03:44:30.580Z,50
2017-05-09T03:45:30.292Z,55
2017-05-09T03:46:30.018Z,60
2017-05-09T03:47:30.355Z,60
2017-05-09T03:48:29.772Z,65
2017-05-09T03:49:29.815Z,70
2017-05-09T03:50:29.856Z,75
2017-05-09T03:51:30.178Z,75
2017-05-09T03:52:30.832Z,80
2017-05-09T03:53:30.249Z,85
2017-05-09T03:54:30.279Z,90
2017-05-09T03:55:30.322Z,95
2017-05-09T03:56:30.039Z,95
2017-05-09T03:57:31.001Z,100
2017-05-09T03:58:30.738Z,110
2017-05-09T03:59:30.780Z,115
2017-05-09T04:00:30.830Z,115
2017-05-09T04:01:30.214Z,120
2017-05-09T04:02:30.575Z,125
2017-05-09T04:03:30.641Z,130
2017-05-09T04:04:30.945Z,130
2017-05-09T04:05:30.353Z,130
2017-05-09T04:06:30.397Z,120
2017-05-09T04:07:31.043Z,90
2017-05-09T04:08:30.772Z,80
2017-05-09T04:09:31.123Z,95
2017-05-09T04:10:30.853Z,80
2017-05-09T04:11:30.583Z,65
2017-05-09T04:12:31.228Z,60
2017-05-09T04:13:30.951Z,60
2017-05-09T04:14:31.297Z,65
2017-05-09T04:15:31.028Z,65
2017-05-09T04:16:30.758Z,80
2017-05-09T04:17:31.097Z,85
2017-05-09T04:18:30.822Z,70
2017-05-09T04:19:30.872Z,65
2017-05-09T04:20:30.895Z,80
2017-05-09T04:21:31.235Z,75
2017-05-09T04:22:31.278Z,80
2017-05-09T04:23:31.316Z,80
2017-05-09T04:24:31.652Z,80
2017-05-09T04:25:31.289Z,80
2017-05-09T04:26:31.422Z,85
2017-05-09T04:27:31.137Z,90
2017-05-09T04:28:31.486Z,90
2017-05-09T04:29:31.715Z,100
2017-05-09T04:30:31.589Z,100
2017-05-09T04:31:31.587Z,110
2017-05-09T04:32:31.616Z,115
2017-05-09T04:33:31.966Z,125
2017-05-09T04:34:32.305Z,140
2017-05-09T04:35:31.718Z,155
2017-05-09T04:36:31.457Z,185
2017-05-09T04:37:31.801Z,230
2017-05-09T04:38:32.147Z,280
2017-05-09T04:39:31.863Z,315
2017-05-09T04:40:31.900Z,320
2017-05-09T04:41:32.247Z,310
2017-05-09T04:42:31.669Z,310
2017-05-09T04:43:31.994Z,300
2017-05-09T04:44:32.655Z,300
2017-05-09T04:45:31.783Z,315
2017-05-09T04:46:32.111Z,345
2017-05-09T04:47:32.152Z,325
2017-05-09T04:48:32.488Z,335
2017-05-09T04:49:32.833Z,325
2017-05-09T04:50:32.253Z,255
2017-05-09T04:51:31.985Z,275
2017-05-09T04:52:32.019Z,305
2017-05-09T04:53:32.061Z,270
2017-05-09T04:54:32.117Z,275
2017-05-09T04:55:32.447Z,235
2017-05-09T04:56:32.168Z,215
2017-05-09T04:57:32.214Z,215
2017-05-09T04:58:32.866Z,180
2017-05-09T04:59:32.595Z,195
2017-05-09T05:00:32.325Z,185
2017-05-09T05:01:32.361Z,145
2017-05-09T05:02:32.450Z,180
2017-05-09T05:03:33.050Z,240
2017-05-09T05:04:33.090Z,250
2017-05-09T05:05:32.818Z,210
2017-05-09T05:06:33.164Z,160
2017-05-09T05:07:32.894Z,160
2017-05-09T05:08:33.869Z,170
2017-05-09T05:09:33.275Z,190
2017-05-09T05:10:33.001Z,175
2017-05-09T05:11:33.380Z,185
2017-05-09T05:12:33.078Z,180
2017-05-09T05:13:33.423Z,185
2017-05-09T05:14:33.467Z,185
2017-05-09T05:15:33.199Z,190
2017-05-09T05:16:33.228Z,225
2017-05-09T05:17:33.261Z,200
2017-05-09T05:18:33.614Z,215
2017-05-09T05:19:33.333Z,240
2017-05-09T05:20:33.364Z,265
2017-05-09T05:21:33.506Z,290
2017-05-09T05:22:33.137Z,300
2017-05-09T05:23:33.510Z,300
2017-05-09T05:24:33.512Z,305
2017-05-09T05:25:33.553Z,305
2017-05-09T05:26:33.584Z,310
2017-05-09T05:27:33.624Z,310
2017-05-09T05:28:33.665Z,335
2017-05-09T05:29:33.697Z,315
2017-05-09T05:30:33.733Z,340
2017-05-09T05:31:33.773Z,335
2017-05-09T05:32:33.819Z,315
2017-05-09T05:33:33.855Z,315
2017-05-09T05:34:33.570Z,455
2017-05-09T05:35:33.608Z,355
2017-05-09T05:36:34.564Z,330
2017-05-09T05:37:33.687Z,345
2017-05-09T05:38:34.640Z,370
2017-05-09T05:39:34.082Z,410
2017-05-09T05:40:33.783Z,395
2017-05-09T05:41:33.829Z,365
2017-05-09T05:42:34.181Z,350
2017-05-09T05:43:34.206Z,330
2017-05-09T05:44:34.244Z,325
2017-05-09T05:45:34.288Z,315
2017-05-09T05:46:34.317Z,325
2017-05-09T05:47:34.051Z,325
2017-05-09T05:48:34.432Z,330
2017-05-09T05:49:34.119Z,310
2017-05-09T05:50:34.157Z,295
2017-05-09T05:51:34.506Z,285
2017-05-09T05:52:34.241Z,275
2017-05-09T05:53:34.573Z,250
2017-05-09T05:54:34.939Z,240
2017-05-09T05:55:34.344Z,250
2017-05-09T05:56:34.378Z,255
2017-05-09T05:57:34.724Z,285
2017-05-09T05:58:35.380Z,315
2017-05-09T05:59:35.126Z,340
2017-05-09T06:00:35.269Z,355
2017-05-09T06:01:34.584Z,350
2017-05-09T06:02:34.919Z,330
2017-05-09T06:03:34.951Z,305
2017-05-09T06:04:35.299Z,295
2017-05-09T06:05:35.052Z,295
2017-05-09T06:06:35.067Z,295
2017-05-09T06:07:34.850Z,305
2017-05-09T06:08:35.434Z,305
2017-05-09T06:09:35.165Z,305
2017-05-09T06:10:35.205Z,280
2017-05-09T06:11:35.238Z,275
2017-05-09T06:12:35.278Z,275
2017-05-09T06:13:35.316Z,285
2017-05-09T06:14:35.670Z,305
2017-05-09T06:15:35.074Z,345
2017-05-09T06:16:35.424Z,380
2017-05-09T06:17:36.082Z,425
2017-05-09T06:18:35.504Z,480
2017-05-09T06:19:35.526Z,585
2017-05-09T06:20:35.562Z,535
2017-05-09T06:21:35.611Z,515
2017-05-09T06:22:35.334Z,640
2017-05-09T06:23:35.691Z,480
2017-05-09T06:24:35.714Z,505
2017-05-09T06:25:35.824Z,490
2017-05-09T06:26:35.489Z,520
2017-05-09T06:27:35.836Z,485
2017-05-09T06:28:36.458Z,475
2017-05-09T06:29:35.994Z,475
2017-05-09T06:30:36.081Z,435
2017-05-09T06:31:35.670Z,425
2017-05-09T06:32:35.713Z,425
2017-05-09T06:33:36.362Z,430
2017-05-09T06:34:35.785Z,460
2017-05-09T06:35:35.820Z,425
2017-05-09T06:36:35.864Z,425
2017-05-09T06:37:36.203Z,425
2017-05-09T06:38:35.957Z,420
2017-05-09T06:39:35.975Z,430
2017-05-09T06:40:36.318Z,435
2017-05-09T06:41:36.679Z,415
2017-05-09T06:42:36.706Z,415
2017-05-09T06:43:36.433Z,430
2017-05-09T06:44:36.477Z,480
2017-05-09T06:45:36.823Z,490
2017-05-09T06:46:36.543Z,510
2017-05-09T06:47:36.412Z,535
2017-05-09T06:48:36.669Z,555
2017-05-09T06:49:36.356Z,545
2017-05-09T06:50:36.396Z,535
2017-05-09T06:51:36.440Z,525
2017-05-09T06:52:36.787Z,490
2017-05-09T06:53:36.811Z,490
2017-05-09T06:54:36.852Z,470
2017-05-09T06:55:36.589Z,465
2017-05-09T06:56:36.616Z,470
2017-05-09T06:57:36.969Z,480
2017-05-09T06:58:37.006Z,470
2017-05-09T06:59:37.043Z,500
2017-05-09T07:00:37.390Z,530
2017-05-09T07:01:37.428Z,545
2017-05-09T07:02:37.164Z,560
2017-05-09T07:03:36.886Z,570
2017-05-09T07:04:36.927Z,570
2017-05-09T07:05:37.277Z,615
2017-05-09T07:06:37.002Z,680
2017-05-09T07:07:37.353Z,740
2017-05-09T07:08:37.388Z,710
2017-05-09T07:09:38.047Z,670
2017-05-09T07:10:37.166Z,645
2017-05-09T07:11:37.195Z,650
2017-05-09T07:12:38.161Z,655
2017-05-09T07:13:37.889Z,715
2017-05-09T07:14:38.242Z,785
2017-05-09T07:15:38.044Z,625
2017-05-09T07:16:38.021Z,570
2017-05-09T07:17:38.047Z,575
2017-05-09T07:18:38.086Z,630
2017-05-09T07:19:38.175Z,665
2017-05-09T07:20:37.859Z,725
2017-05-09T07:21:37.587Z,775
2017-05-09T07:22:38.249Z,800
2017-05-09T07:23:38.288Z,745
2017-05-09T07:24:38.069Z,715
2017-05-09T07:25:38.362Z,630
2017-05-09T07:26:38.720Z,635
2017-05-09T07:27:38.143Z,655
2017-05-09T07:28:38.182Z,660
2017-05-09T07:29:38.225Z,630
2017-05-09T07:30:37.946Z,665
2017-05-09T07:31:38.011Z,775
2017-05-09T07:32:38.645Z,730
2017-05-09T07:33:38.098Z,715
2017-05-09T07:34:38.759Z,760
2017-05-09T07:35:38.144Z,845
2017-05-09T07:36:38.495Z,865
2017-05-09T07:37:38.222Z,790
2017-05-09T07:38:38.573Z,725
2017-05-09T07:39:38.613Z,670
2017-05-09T07:40:38.345Z,610
2017-05-09T07:41:38.691Z,630
2017-05-09T07:42:38.737Z,635
2017-05-09T07:43:38.467Z,610
2017-05-09T07:44:38.821Z,580
2017-05-09T07:45:38.552Z,620
2017-05-09T07:46:38.598Z,655
2017-05-09T07:47:38.635Z,710
2017-05-09T07:48:39.285Z,775
2017-05-09T07:49:39.418Z,895
2017-05-09T07:50:39.052Z,935
2017-05-09T07:51:38.788Z,1120
2017-05-09T07:52:38.827Z,1215
2017-05-09T07:53:39.200Z,1105
2017-05-09T07:54:38.909Z,1045
2017-05-09T07:55:38.951Z,920
2017-05-09T07:56:38.997Z,835
2017-05-09T07:57:39.650Z,785
2017-05-09T07:58:39.691Z,860
2017-05-09T07:59:39.114Z,910
2017-05-09T08:00:39.466Z,935
2017-05-09T08:01:39.531Z,880
2017-05-09T08:02:39.887Z,805
2017-05-09T08:03:39.599Z,765
2017-05-09T08:04:39.954Z,690
2017-05-09T08:05:39.672Z,675
2017-05-09T08:06:39.407Z,680
2017-05-09T08:07:39.755Z,690
2017-05-09T08:08:39.491Z,690
2017-05-09T08:09:39.537Z,715
2017-05-09T08:10:39.586Z,760
2017-05-09T08:11:39.926Z,790
2017-05-09T08:12:39.965Z,810
2017-05-09T08:13:39.700Z,855
2017-05-09T08:14:40.052Z,825
2017-05-09T08:15:39.777Z,875
2017-05-09T08:16:40.126Z,995
2017-05-09T08:17:40.171Z,1050
2017-05-09T08:18:39.904Z,1005
2017-05-09T08:19:40.563Z,970
2017-05-09T08:20:40.517Z,890
2017-05-09T08:21:40.023Z,875
2017-05-09T08:22:40.072Z,885
2017-05-09T08:23:40.423Z,900
2017-05-09T08:24:40.153Z,940
2017-05-09T08:25:40.809Z,985
2017-05-09T08:26:40.591Z,985
2017-05-09T08:27:40.934Z,995
2017-05-09T08:28:40.635Z,1040
2017-05-09T08:29:40.393Z,1075
2017-05-09T08:30:40.710Z,1090
2017-05-09T08:31:40.760Z,1085
2017-05-09T08:32:41.107Z,1090
2017-05-09T08:33:40.839Z,1040
2017-05-09T08:34:40.888Z,1045
2017-05-09T08:35:40.931Z,1105
2017-05-09T08:36:40.663Z,1205
2017-05-09T08:37:41.322Z,1285
2017-05-09T08:38:41.374Z,1360
2017-05-09T08:39:41.113Z,1335
2017-05-09T08:40:40.868Z,1380
2017-05-09T08:41:40.871Z,1515
2017-05-09T08:42:41.232Z,1500
2017-05-09T08:43:40.959Z,1495
2017-05-09T08:44:41.309Z,1420
2017-05-09T08:45:41.047Z,1425
2017-05-09T08:46:41.402Z,1475
2017-05-09T08:47:42.066Z,1320
2017-05-09T08:48:41.491Z,1700
2017-05-09T08:49:42.143Z,1765
2017-05-09T08:50:41.270Z,1835
2017-05-09T08:51:41.620Z,1930
2017-05-09T08:52:41.673Z,1985
2017-05-09T08:53:41.414Z,1930
2017-05-09T08:54:41.448Z,1925
2017-05-09T08:55:41.492Z,2065
2017-05-09T08:56:41.548Z,2225
2017-05-09T08:57:42.517Z,2185
2017-05-09T08:58:41.942Z,2155
2017-05-09T08:59:42.300Z,2140
2017-05-09T09:00:41.724Z,2040
2017-05-09T09:01:41.781Z,2165
2017-05-09T09:02:41.822Z,1225
2017-05-09T09:03:42.176Z,560
2017-05-09T09:04:42.226Z,570
2017-05-09T09:05:41.969Z,1135
2017-05-09T09:06:42.627Z,575
2017-05-09T09:07:42.366Z,1310
2017-05-09T09:08:42.101Z,2425
2017-05-09T09:09:42.464Z,2520
2017-05-09T09:10:42.815Z,2420
2017-05-09T09:11:42.551Z,1210
2017-05-09T09:12:42.916Z,1990
2017-05-09T09:13:42.651Z,1945
2017-05-09T09:14:42.385Z,1980
2017-05-09T09:15:42.763Z,2035
2017-05-09T09:16:43.101Z,1325
2017-05-09T09:17:42.526Z,2220
2017-05-09T09:18:43.190Z,2280
2017-05-09T09:19:42.940Z,1325
2017-05-09T09:20:42.666Z,2460
2017-05-09T09:21:43.023Z,2165
2017-05-09T09:22:43.700Z,1385
2017-05-09T09:23:43.124Z,2895
2017-05-09T09:24:43.167Z,1500
2017-05-09T09:25:42.908Z,635
2017-05-09T09:26:43.577Z,2435
2017-05-09T09:27:43.310Z,790
2017-05-09T09:28:43.058Z,2415
2017-05-09T09:29:43.417Z,2650
2017-05-09T09:30:43.476Z,2650
2017-05-09T09:31:43.509Z,2660
2017-05-09T09:32:43.557Z,2785
2017-05-09T09:33:43.613Z,2270
2017-05-09T09:34:43.653Z,1940
2017-05-09T09:35:43.406Z,2850
2017-05-09T09:36:43.448Z,2895
2017-05-09T09:37:43.798Z,2950
2017-05-09T09:38:43.873Z,2920
2017-05-09T09:39:44.222Z,2820
2017-05-09T09:40:44.266Z,2680
2017-05-09T09:41:44.635Z,2505
2017-05-09T09:42:43.751Z,2345
2017-05-09T09:43:44.468Z,2115
2017-05-09T09:44:44.159Z,2075
2017-05-09T09:45:44.834Z,1660
2017-05-09T09:46:44.884Z,1770
2017-05-09T09:47:44.627Z,560
2017-05-09T09:48:44.676Z,870
2017-05-09T09:49:44.112Z,460
2017-05-09T09:50:44.473Z,500
2017-05-09T09:51:44.828Z,550
2017-05-09T09:52:45.205Z,420
2017-05-09T09:53:44.619Z,1290
2017-05-09T09:54:44.683Z,2820
2017-05-09T09:55:45.027Z,2740
2017-05-09T09:56:44.457Z,2525
2017-05-09T09:57:44.814Z,390
2017-05-09T09:58:44.872Z,430
2017-05-09T09:59:44.606Z,430
2017-05-09T10:00:45.268Z,490
2017-05-09T10:01:44.743Z,630
2017-05-09T10:02:45.362Z,1045
2017-05-09T10:03:45.416Z,2110
2017-05-09T10:04:44.840Z,680
2017-05-09T10:05:45.200Z,845
2017-05-09T10:06:44.937Z,2720
2017-05-09T10:07:45.293Z,2865
2017-05-09T10:08:45.338Z,2765
2017-05-09T10:09:45.406Z,2650
2017-05-09T10:10:45.432Z,2555
2017-05-09T10:11:45.176Z,2500
2017-05-09T10:12:45.226Z,2525
2017-05-09T10:13:45.607Z,2590
2017-05-09T10:14:45.318Z,2665
2017-05-09T10:15:45.372Z,2670
2017-05-09T10:16:45.725Z,2645
2017-05-09T10:17:45.919Z,2640
2017-05-09T10:18:45.827Z,2640
2017-05-09T10:19:45.579Z,2685
2017-05-09T10:20:45.631Z,2730
2017-05-09T10:21:46.018Z,2785
2017-05-09T10:22:45.736Z,2780
2017-05-09T10:23:46.085Z,2795
2017-05-09T10:24:46.149Z,2745
2017-05-09T10:25:45.885Z,2675
2017-05-09T10:26:46.274Z,2580
2017-05-09T10:27:46.302Z,2490
2017-05-09T10:28:46.040Z,2450
2017-05-09T10:29:46.755Z,2450
2017-05-09T10:30:46.462Z,2230
2017-05-09T10:31:46.517Z,2345
2017-05-09T10:32:47.054Z,820
2017-05-09T10:33:46.627Z,770
2017-05-09T10:34:46.682Z,1965
2017-05-09T10:35:47.045Z,1365
2017-05-09T10:36:46.786Z,2470
2017-05-09T10:37:46.527Z,2365
2017-05-09T10:38:46.603Z,2460
2017-05-09T10:39:46.670Z,2615
2017-05-09T10:40:47.129Z,2610
2017-05-09T10:41:47.047Z,2660
2017-05-09T10:42:46.796Z,2725
2017-05-09T10:43:47.480Z,2680
2017-05-09T10:44:46.894Z,660
2017-05-09T10:45:47.264Z,485
2017-05-09T10:46:47.711Z,470
2017-05-09T10:47:47.746Z,475
2017-05-09T10:48:48.037Z,485
2017-05-09T10:49:47.789Z,510
2017-05-09T10:50:47.526Z,555
2017-05-09T10:51:47.594Z,655
2017-05-09T10:52:47.964Z,595
2017-05-09T10:53:47.677Z,605
2017-05-09T10:54:47.731Z,590
2017-05-09T10:55:48.076Z,505
2017-05-09T10:56:47.822Z,455
2017-05-09T10:57:47.552Z,405
2017-05-09T10:58:47.916Z,355
2017-05-09T10:59:47.654Z,330
2017-05-09T11:00:48.310Z,300
2017-05-09T11:01:47.737Z,285
2017-05-09T11:02:48.423Z,275
2017-05-09T11:03:48.467Z,365
2017-05-09T11:04:47.879Z,2385
2017-05-09T11:05:48.234Z,2415
2017-05-09T11:06:48.277Z,1605
2017-05-09T11:07:48.627Z,555
2017-05-09T11:08:48.060Z,400
2017-05-09T11:09:48.420Z,390
2017-05-09T11:10:48.172Z,270
2017-05-09T11:11:48.814Z,265
2017-05-09T11:12:48.549Z,375
2017-05-09T11:13:48.908Z,355
2017-05-09T11:14:48.331Z,340
2017-05-09T11:15:48.686Z,360
2017-05-09T11:16:48.736Z,380
2017-05-09T11:17:48.468Z,415
2017-05-09T11:18:48.820Z,405
2017-05-09T11:19:48.562Z,410
2017-05-09T11:20:48.912Z,415
2017-05-09T11:21:48.657Z,425
2017-05-09T11:22:49.629Z,485
2017-05-09T11:23:49.353Z,535
2017-05-09T11:24:49.086Z,530
2017-05-09T11:25:48.835Z,525
2017-05-09T11:26:49.182Z,500
2017-05-09T11:27:48.915Z,485
2017-05-09T11:28:49.572Z,470
2017-05-09T11:29:49.312Z,455
2017-05-09T11:30:49.662Z,435
2017-05-09T11:31:49.707Z,420
2017-05-09T11:32:49.445Z,405
2017-05-09T11:33:49.181Z,390
2017-05-09T11:34:49.580Z,385
2017-05-09T11:35:50.196Z,390
2017-05-09T11:36:49.621Z,395
2017-05-09T11:37:49.668Z,390
2017-05-09T11:38:49.706Z,385
2017-05-09T11:39:49.739Z,385
2017-05-09T11:40:49.479Z,390
2017-05-09T11:41:49.524Z,395
2017-05-09T11:42:49.565Z,395
2017-05-09T11:43:49.916Z,385
2017-05-09T11:44:49.643Z,375
2017-05-09T11:45:50.009Z,370
2017-05-09T11:46:49.730Z,360
2017-05-09T11:47:49.773Z,345
2017-05-09T11:48:50.133Z,340
2017-05-09T11:49:50.472Z,345
2017-05-09T11:50:49.899Z,385
2017-05-09T11:51:50.249Z,440
2017-05-09T11:52:50.907Z,475
2017-05-09T11:53:50.643Z,480
2017-05-09T11:54:50.380Z,485
2017-05-09T11:55:50.724Z,505
2017-05-09T11:56:50.771Z,520
2017-05-09T11:57:50.808Z,520
2017-05-09T11:58:50.538Z,510
2017-05-09T11:59:51.203Z,500
2017-05-09T12:00:50.323Z,495
2017-05-09T12:01:50.975Z,485
2017-05-09T12:02:51.015Z,465
2017-05-09T12:03:50.749Z,445
2017-05-09T12:04:50.790Z,435
2017-05-09T12:05:50.842Z,430
2017-05-09T12:06:51.184Z,440
2017-05-09T12:07:50.611Z,430
2017-05-09T12:08:50.968Z,425
2017-05-09T12:09:51.004Z,410
2017-05-09T12:10:50.781Z,390
2017-05-09T12:11:51.090Z,350
2017-05-09T12:12:50.815Z,325
2017-05-09T12:13:50.864Z,310
2017-05-09T12:14:51.206Z,295
2017-05-09T12:15:51.434Z,300
2017-05-09T12:16:50.978Z,310
2017-05-09T12:17:51.578Z,295
2017-05-09T12:18:51.370Z,265
2017-05-09T12:19:51.114Z,260
2017-05-09T12:20:51.146Z,240
2017-05-09T12:21:51.190Z,220
2017-05-09T12:22:51.541Z,200
2017-05-09T12:23:51.580Z,180
2017-05-09T12:24:51.334Z,175
2017-05-09T12:25:51.672Z,170
2017-05-09T12:26:51.401Z,175
2017-05-09T12:27:51.745Z,190
2017-05-09T12:28:51.475Z,200
2017-05-09T12:29:51.513Z,190
2017-05-09T12:30:51.865Z,180
2017-05-09T12:31:51.901Z,195
2017-05-09T12:32:51.945Z,190
2017-05-09T12:33:51.683Z,185
2017-05-09T12:34:51.719Z,180
2017-05-09T12:35:52.366Z,180
2017-05-09T12:36:51.809Z,175
2017-05-09T12:37:51.850Z,180
2017-05-09T12:38:52.521Z,185
2017-05-09T12:39:52.531Z,185
2017-05-09T12:40:52.301Z,185
2017-05-09T12:41:52.306Z,190
2017-05-09T12:42:52.344Z,195
2017-05-09T12:43:52.090Z,205
2017-05-09T12:44:52.732Z,225
2017-05-09T12:45:52.777Z,245
2017-05-09T12:46:52.190Z,260
2017-05-09T12:47:52.236Z,255
2017-05-09T12:48:52.274Z,255
2017-05-09T12:49:52.623Z,235
2017-05-09T12:50:52.362Z,210
2017-05-09T12:51:52.701Z,195
2017-05-09T12:52:52.744Z,190
2017-05-09T12:53:52.817Z,195
2017-05-09T12:54:52.520Z,190
2017-05-09T12:55:52.586Z,195
2017-05-09T12:56:53.206Z,200
2017-05-09T12:57:53.294Z,185
2017-05-09T12:58:52.979Z,185
2017-05-09T12:59:52.801Z,200
2017-05-09T13:00:53.363Z,220
2017-05-09T13:01:52.789Z,235
2017-05-09T13:02:52.830Z,250
2017-05-09T13:03:53.236Z,260
2017-05-09T13:04:53.430Z,255
2017-05-09T13:05:53.247Z,255
2017-05-09T13:06:53.598Z,260
2017-05-09T13:07:53.332Z,265
2017-05-09T13:08:53.716Z,270
2017-05-09T13:09:53.417Z,275
2017-05-09T13:10:53.453Z,260
2017-05-09T13:11:53.179Z,260
2017-05-09T13:12:53.536Z,270
2017-05-09T13:13:53.264Z,265
2017-05-09T13:14:53.300Z,265
2017-05-09T13:15:53.336Z,265
2017-05-09T13:16:53.995Z,255
2017-05-09T13:17:53.419Z,245
2017-05-09T13:18:54.381Z,235
2017-05-09T13:19:53.837Z,235
2017-05-09T13:20:54.123Z,225
2017-05-09T13:21:53.581Z,220
2017-05-09T13:22:53.618Z,220
2017-05-09T13:23:53.972Z,215
2017-05-09T13:24:54.321Z,215
2017-05-09T13:25:54.100Z,220
2017-05-09T13:26:54.094Z,225
2017-05-09T13:27:54.147Z,245
2017-05-09T13:28:53.865Z,255
2017-05-09T13:29:53.893Z,250
2017-05-09T13:30:54.252Z,260
2017-05-09T13:31:54.590Z,270
2017-05-09T13:32:54.062Z,275
2017-05-09T13:33:54.673Z,280
2017-05-09T13:34:54.397Z,280
2017-05-09T13:35:54.130Z,265
2017-05-09T13:36:54.170Z,250
2017-05-09T13:37:54.826Z,230
2017-05-09T13:38:54.556Z,210
2017-05-09T13:39:54.289Z,195
2017-05-09T13:40:55.264Z,200
2017-05-09T13:41:54.676Z,210
2017-05-09T13:42:54.719Z,215
2017-05-09T13:43:55.062Z,225
2017-05-09T13:44:54.489Z,230
2017-05-09T13:45:54.532Z,235
2017-05-09T13:46:54.880Z,245
2017-05-09T13:47:55.231Z,250
2017-05-09T13:48:54.961Z,265
2017-05-09T13:49:54.995Z,280
2017-05-09T13:50:55.035Z,285
2017-05-09T13:51:54.774Z,290
2017-05-09T13:52:55.427Z,290
2017-05-09T13:53:54.852Z,270
2017-05-09T13:54:55.189Z,270
2017-05-09T13:55:55.236Z,260
2017-05-09T13:56:54.962Z,260
2017-05-09T13:57:55.621Z,275